Time;durP1;ratioP1;P1;durP2;ratioP2;P2;SDS_P1;SDS_P2;PMS_P1;PMS_P2;Temp;Humidity;BMP_temperature;BMP_pressure;BME280_temperature;BME280_humidity;BME280_pressure;Samples;Min_cycle;Max_cycle;Signal;HPM_P1;HPM_P2
2022/12/05 00:01:15;;;;;;;96.47;39.27;;;2.30;99.90;;;;;;8334284;28;20201;-72
2022/12/05 00:05:17;;;;;;;84.77;35.33;;;2.30;99.90;;;;;;8339359;28;20198;-74
2022/12/05 00:09:17;;;;;;;106.30;39.47;;;2.30;99.90;;;;;;8339003;28;20185;-74
2022/12/05 00:13:18;;;;;;;83.17;36.33;;;2.30;99.90;;;;;;8343960;28;20211;-75
2022/12/05 00:17:19;;;;;;;84.53;33.83;;;2.30;99.90;;;;;;8338440;28;20194;-73
2022/12/05 00:21:22;;;;;;;81.07;32.93;;;2.30;99.90;;;;;;8345315;28;20213;-73
2022/12/05 00:25:23;;;;;;;71.70;33.20;;;2.30;99.90;;;;;;8354034;28;20198;-73
2022/12/05 00:29:24;;;;;;;79.37;33.60;;;2.30;99.90;;;;;;8353309;28;20243;-72
2022/12/05 00:33:25;;;;;;;77.87;31.83;;;2.30;99.90;;;;;;8352242;28;20209;-74
2022/12/05 00:37:25;;;;;;;72.00;31.50;;;2.30;99.90;;;;;;8354239;28;20177;-74
2022/12/05 00:41:27;;;;;;;69.50;31.27;;;2.30;99.90;;;;;;8351907;28;20322;-72
2022/12/05 00:45:32;;;;;;;74.20;30.83;;;2.30;99.90;;;;;;8342383;28;20175;-72
2022/12/05 00:49:33;;;;;;;80.00;30.93;;;2.30;99.90;;;;;;8347703;28;20194;-74
2022/12/05 00:53:41;;;;;;;68.80;30.53;;;2.40;99.90;;;;;;8339059;28;20225;-73
2022/12/05 00:57:41;;;;;;;68.43;30.53;;;2.40;99.90;;;;;;8340931;28;20239;-74
2022/12/05 01:01:44;;;;;;;63.03;28.23;;;2.40;99.90;;;;;;8341252;28;20279;-74
2022/12/05 01:05:45;;;;;;;62.60;27.43;;;2.40;99.90;;;;;;8342513;28;20166;-73
2022/12/05 01:09:45;;;;;;;61.63;27.57;;;2.40;99.90;;;;;;8345339;28;20182;-71
2022/12/05 01:13:46;;;;;;;62.33;27.43;;;2.40;99.90;;;;;;8341752;28;20210;-71
2022/12/05 01:17:47;;;;;;;59.40;26.23;;;2.40;99.90;;;;;;8325000;28;20179;-70
2022/12/05 01:21:48;;;;;;;52.63;26.77;;;2.50;99.90;;;;;;8336165;28;20185;-72
2022/12/05 01:25:51;;;;;;;57.87;27.53;;;2.50;99.90;;;;;;8331355;28;20175;-71
2022/12/05 01:29:52;;;;;;;57.27;26.97;;;2.50;99.90;;;;;;8348755;28;20182;-71
2022/12/05 01:33:54;;;;;;;65.13;27.70;;;2.60;99.90;;;;;;8336499;28;20626;-70
2022/12/05 01:37:55;;;;;;;55.70;26.10;;;2.60;99.90;;;;;;8339316;28;20210;-71
2022/12/05 01:41:56;;;;;;;55.37;26.50;;;2.60;99.90;;;;;;8336424;28;20185;-71
2022/12/05 01:45:56;;;;;;;54.20;27.60;;;2.60;99.90;;;;;;8337940;28;20190;-71
2022/12/05 01:49:59;;;;;;;54.70;26.70;;;2.60;99.90;;;;;;8332351;28;20182;-70
2022/12/05 01:54:01;;;;;;;56.00;26.10;;;2.70;99.90;;;;;;8329724;28;20319;-72
2022/12/05 01:58:04;;;;;;;56.80;25.43;;;2.70;99.90;;;;;;8339239;28;20266;-71
2022/12/05 02:02:05;;;;;;;51.73;24.60;;;2.70;99.90;;;;;;8343851;28;20193;-70
2022/12/05 02:06:06;;;;;;;48.80;25.30;;;2.70;99.90;;;;;;8333476;28;20218;-71
2022/12/05 02:10:08;;;;;;;55.13;27.27;;;2.70;99.90;;;;;;8330904;28;20210;-70
2022/12/05 02:14:26;;;;;;;56.00;26.40;;;2.70;99.90;;;;;;8337494;28;20312;-72
2022/12/05 02:18:36;;;;;;;57.33;27.33;;;2.70;99.90;;;;;;8321305;28;20249;-70
2022/12/05 02:22:43;;;;;;;57.70;26.93;;;2.70;99.90;;;;;;8337897;28;20188;-70
2022/12/05 02:27:17;;;;;;;62.43;26.50;;;2.70;99.90;;;;;;8318712;28;20221;-70
2022/12/05 02:31:28;;;;;;;58.07;27.80;;;2.80;99.90;;;;;;8334708;28;20256;-69
2022/12/05 02:35:38;;;;;;;58.23;28.17;;;2.80;99.90;;;;;;8346856;28;20245;-71
2022/12/05 02:39:59;;;;;;;59.33;27.90;;;2.80;99.90;;;;;;8320835;28;20241;-71
2022/12/05 02:44:21;;;;;;;64.00;27.90;;;2.80;99.90;;;;;;8330001;28;20182;-70
2022/12/05 02:48:26;;;;;;;62.33;28.20;;;2.90;99.90;;;;;;8321484;28;20192;-72
2022/12/05 02:52:31;;;;;;;68.93;29.40;;;2.90;99.90;;;;;;8348675;28;20200;-71
2022/12/05 02:56:34;;;;;;;63.60;28.30;;;2.90;99.90;;;;;;8343453;28;20217;-71
2022/12/05 03:00:42;;;;;;;75.43;31.87;;;2.90;99.90;;;;;;8346431;28;20253;-72
2022/12/05 03:04:43;;;;;;;75.43;32.47;;;2.90;99.90;;;;;;8338337;28;20193;-73
2022/12/05 03:09:06;;;;;;;77.17;33.67;;;2.90;99.90;;;;;;8344495;28;20193;-73
2022/12/05 03:13:15;;;;;;;81.23;33.90;;;2.90;99.90;;;;;;8325082;28;20215;-73
2022/12/05 03:17:23;;;;;;;74.70;32.90;;;2.90;99.90;;;;;;8345336;28;20185;-73
2022/12/05 03:21:33;;;;;;;73.33;34.00;;;2.90;99.90;;;;;;8343988;28;20187;-73
2022/12/05 03:25:57;;;;;;;76.40;33.30;;;2.90;99.90;;;;;;8330579;28;20195;-73
2022/12/05 03:30:10;;;;;;;87.97;34.07;;;2.90;99.90;;;;;;8337018;28;20197;-74
2022/12/05 03:34:17;;;;;;;84.60;34.10;;;2.90;99.90;;;;;;8339029;28;20219;-73
2022/12/05 03:38:35;;;;;;;88.37;35.13;;;2.90;99.90;;;;;;8343476;28;20165;-74
2022/12/05 03:42:40;;;;;;;84.47;34.60;;;3.00;99.90;;;;;;8340205;28;20190;-73
2022/12/05 03:46:50;;;;;;;87.60;35.93;;;3.00;99.90;;;;;;8342359;28;20190;-73
2022/12/05 03:50:53;;;;;;;97.63;39.30;;;3.00;99.90;;;;;;8344107;28;20213;-74
2022/12/05 03:55:02;;;;;;;98.43;46.13;;;3.00;99.90;;;;;;8337528;28;20221;-74
2022/12/05 03:59:27;;;;;;;94.03;42.93;;;3.00;99.90;;;;;;8343558;28;20220;-73
2022/12/05 04:03:42;;;;;;;99.50;42.00;;;3.00;99.90;;;;;;8337297;28;20241;-75
2022/12/05 04:07:45;;;;;;;107.57;42.13;;;3.00;99.90;;;;;;8359707;28;20194;-73
2022/12/05 04:11:52;;;;;;;90.43;40.63;;;3.00;99.90;;;;;;8348295;28;20196;-75
2022/12/05 04:29:30;;;;;;;105.97;46.87;;;2.90;99.90;;;;;;8347904;28;20190;-74
2022/12/05 04:33:53;;;;;;;126.63;48.67;;;2.90;99.90;;;;;;8352165;28;20218;-73
2022/12/05 04:38:01;;;;;;;117.77;42.67;;;2.90;99.90;;;;;;8356207;28;20197;-73
2022/12/05 04:42:09;;;;;;;114.30;43.27;;;3.00;99.90;;;;;;8347531;28;20177;-74
2022/12/05 04:46:14;;;;;;;111.50;43.50;;;2.90;99.90;;;;;;8328887;28;20179;-73
2022/12/05 04:50:16;;;;;;;120.37;47.73;;;2.90;99.90;;;;;;8353685;28;20304;-75
2022/12/05 04:54:31;;;;;;;107.73;42.60;;;2.90;99.90;;;;;;8366523;28;20218;-75
2022/12/05 04:58:32;;;;;;;110.07;43.73;;;2.90;99.90;;;;;;8349688;28;20208;-74
2022/12/05 05:02:43;;;;;;;107.10;43.07;;;2.90;99.90;;;;;;8351087;28;20206;-73
2022/12/05 05:06:43;;;;;;;98.57;41.10;;;2.90;99.90;;;;;;8345131;28;20249;-73
2022/12/05 05:11:20;;;;;;;105.17;44.57;;;2.90;99.90;;;;;;8342815;28;20196;-74
2022/12/05 05:15:21;;;;;;;126.87;47.07;;;2.90;99.90;;;;;;8338313;28;20213;-73
2022/12/05 05:19:22;;;;;;;118.53;49.87;;;2.90;99.90;;;;;;8341978;28;20492;-74
2022/12/05 05:23:23;;;;;;;143.20;54.57;;;2.90;99.90;;;;;;8351003;28;20178;-74
2022/12/05 05:27:24;;;;;;;111.67;44.40;;;2.90;99.90;;;;;;8349473;28;20192;-73
2022/12/05 05:31:25;;;;;;;105.07;42.03;;;2.90;99.90;;;;;;8334233;28;20185;-72
2022/12/05 05:35:26;;;;;;;111.53;42.13;;;2.90;99.90;;;;;;8352519;28;20210;-72
2022/12/05 05:39:28;;;;;;;102.97;41.03;;;2.90;99.90;;;;;;8330130;28;20189;-72
2022/12/05 05:43:29;;;;;;;131.13;51.17;;;2.90;99.90;;;;;;8323098;28;20186;-70
2022/12/05 05:47:30;;;;;;;105.70;43.23;;;2.90;99.90;;;;;;8331099;28;20259;-71
2022/12/05 05:51:31;;;;;;;108.37;43.67;;;2.90;99.90;;;;;;8324462;28;20195;-69
2022/12/05 05:55:32;;;;;;;118.73;46.10;;;2.90;99.90;;;;;;8322878;28;20336;-71
2022/12/05 05:59:33;;;;;;;114.40;46.47;;;2.90;99.90;;;;;;8327350;28;20206;-71
2022/12/05 06:03:34;;;;;;;106.23;44.10;;;2.90;99.90;;;;;;8311783;28;20241;-71
2022/12/05 06:07:35;;;;;;;111.80;45.13;;;2.90;99.90;;;;;;8319266;28;20194;-71
2022/12/05 06:11:36;;;;;;;101.90;43.77;;;2.90;99.90;;;;;;8316932;28;20214;-72
2022/12/05 06:15:36;;;;;;;95.40;39.90;;;2.90;99.90;;;;;;8326742;28;20217;-72
2022/12/05 06:19:37;;;;;;;103.80;42.40;;;2.90;99.90;;;;;;8331515;28;20334;-72
2022/12/05 06:23:39;;;;;;;94.87;41.53;;;2.90;99.90;;;;;;8324409;28;20186;-72
2022/12/05 06:27:40;;;;;;;97.80;40.80;;;2.80;99.90;;;;;;8331290;28;20214;-71
2022/12/05 06:31:40;;;;;;;89.50;37.23;;;2.80;99.90;;;;;;8332487;28;20272;-71
2022/12/05 06:35:42;;;;;;;80.50;37.87;;;2.90;99.90;;;;;;8329225;28;20237;-71
2022/12/05 06:39:43;;;;;;;89.13;39.00;;;2.80;99.90;;;;;;8325729;28;20182;-71
2022/12/05 06:43:44;;;;;;;75.93;36.27;;;2.80;99.90;;;;;;8317277;28;20186;-72
2022/12/05 06:47:45;;;;;;;88.17;41.03;;;2.90;99.90;;;;;;8331213;28;20186;-71
2022/12/05 06:51:46;;;;;;;83.80;40.30;;;2.90;99.90;;;;;;8330410;28;20277;-71
2022/12/05 06:55:58;;;;;;;96.47;42.20;;;2.90;99.90;;;;;;8327766;28;20545;-72
2022/12/05 07:04:23;;;;;;;75.00;35.40;;;3.00;99.90;;;;;;8320652;28;20213;-72
2022/12/05 07:08:24;;;;;;;84.07;38.43;;;2.90;99.90;;;;;;8332959;28;20183;-71
2022/12/05 07:12:24;;;;;;;79.97;38.10;;;2.90;99.90;;;;;;8327056;28;20185;-72
2022/12/05 07:16:25;;;;;;;82.97;38.23;;;2.90;99.90;;;;;;8325133;28;20206;-72
2022/12/05 07:20:26;;;;;;;92.57;37.20;;;2.90;99.90;;;;;;8328175;28;20288;-71
2022/12/05 07:24:27;;;;;;;85.37;35.70;;;2.90;99.90;;;;;;8326792;28;20189;-72
2022/12/05 07:28:28;;;;;;;77.70;37.07;;;2.90;99.90;;;;;;8325439;28;20563;-72
2022/12/05 07:32:32;;;;;;;79.77;36.63;;;2.90;99.90;;;;;;8328996;28;20186;-72
2022/12/05 07:36:34;;;;;;;85.53;40.27;;;2.90;99.90;;;;;;8331186;28;20574;-72
2022/12/05 07:40:36;;;;;;;85.67;39.57;;;2.90;99.90;;;;;;8322926;28;20189;-72
2022/12/05 07:44:37;;;;;;;79.77;36.47;;;2.90;99.90;;;;;;8323897;28;20681;-71
2022/12/05 07:48:38;;;;;;;91.57;40.03;;;3.00;99.90;;;;;;8327610;28;20195;-71
2022/12/05 07:52:40;;;;;;;90.63;39.20;;;3.00;99.90;;;;;;8341326;28;20225;-72
2022/12/05 07:56:40;;;;;;;83.00;37.40;;;3.00;99.90;;;;;;8322451;28;20250;-72
2022/12/05 08:00:41;;;;;;;74.80;35.43;;;3.00;99.90;;;;;;8320222;28;20210;-72
2022/12/05 08:04:42;;;;;;;91.57;39.07;;;3.00;99.90;;;;;;8322528;28;20220;-72
2022/12/05 08:08:44;;;;;;;87.90;37.57;;;3.10;99.90;;;;;;8319962;28;20548;-72
2022/12/05 08:12:45;;;;;;;93.67;38.83;;;3.10;99.90;;;;;;8317495;28;20184;-72
2022/12/05 08:16:45;;;;;;;85.13;38.37;;;3.20;99.90;;;;;;8312044;28;20173;-72
2022/12/05 08:20:46;;;;;;;86.53;40.03;;;3.20;99.90;;;;;;8326184;28;20185;-72
2022/12/05 08:24:49;;;;;;;79.53;35.67;;;3.20;99.90;;;;;;8328213;28;20292;-73
2022/12/05 08:28:55;;;;;;;85.53;39.20;;;3.30;99.90;;;;;;8325329;28;20542;-70
2022/12/05 08:32:56;;;;;;;83.83;37.63;;;3.20;99.90;;;;;;8325998;28;20249;-71
2022/12/05 08:36:57;;;;;;;73.97;35.43;;;3.20;99.90;;;;;;8323923;28;20174;-71
2022/12/05 08:41:06;;;;;;;76.07;36.20;;;3.20;99.90;;;;;;8317086;28;20193;-70
2022/12/05 08:45:07;;;;;;;92.73;44.60;;;3.20;99.90;;;;;;8325952;28;20190;-71
2022/12/05 08:49:10;;;;;;;74.17;36.00;;;3.30;99.90;;;;;;8324297;28;20193;-70
2022/12/05 08:53:11;;;;;;;76.63;35.20;;;3.30;99.90;;;;;;8322790;28;20232;-70
2022/12/05 08:57:12;;;;;;;73.40;35.27;;;3.30;99.90;;;;;;8325450;28;20202;-70
2022/12/05 09:01:18;;;;;;;87.57;40.63;;;3.40;99.90;;;;;;8322627;28;20534;-70
2022/12/05 09:05:19;;;;;;;74.77;37.00;;;3.40;99.90;;;;;;8320996;28;20183;-71
2022/12/05 09:09:19;;;;;;;74.13;33.73;;;3.50;99.90;;;;;;8323304;28;20273;-70
2022/12/05 09:13:20;;;;;;;86.10;38.83;;;3.50;99.90;;;;;;8323525;28;20194;-70
2022/12/05 09:17:22;;;;;;;82.83;36.47;;;3.60;99.90;;;;;;8319530;28;20182;-71
2022/12/05 09:21:25;;;;;;;77.30;35.10;;;3.60;99.90;;;;;;8315334;28;20246;-71
2022/12/05 09:25:26;;;;;;;74.43;35.37;;;3.60;99.90;;;;;;8321425;28;20206;-71
2022/12/05 09:29:30;;;;;;;83.37;39.93;;;3.60;99.90;;;;;;8327591;28;20442;-72
2022/12/05 09:33:34;;;;;;;83.00;39.27;;;3.70;99.90;;;;;;8318379;28;20205;-72
2022/12/05 09:37:35;;;;;;;81.13;40.87;;;3.70;99.90;;;;;;8319713;28;20221;-72
2022/12/05 09:42:04;;;;;;;98.43;49.87;;;3.80;99.90;;;;;;8320173;28;20185;-72
2022/12/05 09:46:33;;;;;;;88.73;42.83;;;3.80;99.90;;;;;;8324004;28;20273;-72
2022/12/05 09:50:44;;;;;;;73.57;37.47;;;3.90;99.90;;;;;;8308338;28;20195;-71
2022/12/05 09:54:46;;;;;;;74.27;38.77;;;4.00;99.90;;;;;;8327519;28;20206;-71
2022/12/05 09:58:50;;;;;;;89.20;40.87;;;4.00;99.90;;;;;;8326078;28;20202;-71
2022/12/05 10:03:22;;;;;;;82.83;42.60;;;4.10;99.90;;;;;;8325978;28;20197;-71
2022/12/05 10:07:51;;;;;;;85.07;39.77;;;4.20;99.90;;;;;;8327982;28;20174;-71
2022/12/05 10:12:15;;;;;;;74.83;36.63;;;4.30;99.90;;;;;;8333526;28;20172;-71
2022/12/05 10:16:33;;;;;;;71.63;37.70;;;4.30;99.90;;;;;;8329558;28;20209;-71
2022/12/05 10:20:42;;;;;;;68.07;35.50;;;4.40;99.90;;;;;;8327274;28;20180;-71
2022/12/05 10:24:53;;;;;;;90.60;43.13;;;4.50;99.90;;;;;;8339424;28;21572;-71
2022/12/05 10:29:17;;;;;;;94.07;47.33;;;4.60;99.90;;;;;;8330828;28;20365;-71
2022/12/05 10:33:21;;;;;;;90.50;44.77;;;4.60;99.90;;;;;;8333136;28;20255;-71
2022/12/05 10:37:23;;;;;;;78.37;40.20;;;4.60;99.90;;;;;;8343465;28;20207;-71
2022/12/05 10:41:24;;;;;;;62.97;35.83;;;4.60;99.90;;;;;;8335377;28;20176;-71
2022/12/05 10:45:24;;;;;;;71.80;38.70;;;4.60;99.90;;;;;;8324911;28;20221;-71
2022/12/05 10:49:26;;;;;;;71.47;35.57;;;4.60;99.90;;;;;;8325669;28;20189;-73
2022/12/05 10:53:48;;;;;;;61.13;32.70;;;4.60;99.90;;;;;;8330697;28;20286;-73
2022/12/05 10:57:51;;;;;;;67.60;33.63;;;4.60;99.90;;;;;;8332512;28;20309;-72
2022/12/05 11:01:55;;;;;;;62.27;31.50;;;4.70;99.90;;;;;;8333756;28;20192;-73
2022/12/05 11:06:01;;;;;;;58.30;31.10;;;4.70;99.90;;;;;;8331641;28;20236;-72
2022/12/05 11:10:19;;;;;;;73.63;36.63;;;4.70;99.90;;;;;;8332300;28;20244;-72
2022/12/05 11:14:25;;;;;;;103.80;47.57;;;4.70;99.90;;;;;;8328885;28;20230;-72
2022/12/05 11:18:30;;;;;;;93.67;43.93;;;4.70;99.90;;;;;;8331368;28;20188;-71
2022/12/05 11:22:35;;;;;;;95.20;47.30;;;4.60;99.90;;;;;;8328613;28;20219;-73
2022/12/05 11:26:36;;;;;;;69.63;33.60;;;4.60;99.90;;;;;;8326982;28;20182;-73
2022/12/05 11:30:37;;;;;;;73.70;35.67;;;4.60;99.90;;;;;;8333030;28;20190;-71
2022/12/05 11:34:53;;;;;;;95.97;51.23;;;4.50;99.90;;;;;;8329261;28;20283;-72
2022/12/05 11:38:54;;;;;;;79.00;40.43;;;4.50;99.90;;;;;;8331246;28;20229;-71
2022/12/05 11:43:13;;;;;;;82.07;38.37;;;4.50;99.90;;;;;;8327898;28;20265;-70
2022/12/05 11:47:37;;;;;;;67.00;34.30;;;4.60;99.90;;;;;;8328023;28;20175;-70
2022/12/05 11:52:03;;;;;;;85.43;39.33;;;4.60;99.90;;;;;;8331271;28;20178;-71
2022/12/05 11:56:24;;;;;;;83.40;38.07;;;4.70;99.90;;;;;;8327452;28;20210;-70
2022/12/05 12:01:00;;;;;;;86.73;38.07;;;4.70;99.90;;;;;;8324474;28;20504;-71
2022/12/05 12:05:20;;;;;;;97.80;41.80;;;4.70;99.90;;;;;;8314186;28;20200;-71
2022/12/05 12:09:50;;;;;;;82.43;36.40;;;4.80;99.90;;;;;;8330424;28;20267;-71
2022/12/05 12:14:09;;;;;;;84.63;40.43;;;4.80;99.90;;;;;;8310593;28;20210;-72
2022/12/05 12:18:41;;;;;;;76.30;39.03;;;4.70;99.90;;;;;;8343615;28;20192;-70
2022/12/05 12:23:10;;;;;;;96.07;45.17;;;4.70;99.90;;;;;;8318163;28;20236;-72
2022/12/05 12:27:13;;;;;;;87.80;40.47;;;4.60;99.90;;;;;;8331314;28;20367;-71
2022/12/05 12:31:20;;;;;;;93.67;42.77;;;4.60;99.90;;;;;;8327843;28;20207;-72
2022/12/05 12:35:49;;;;;;;93.90;42.03;;;4.50;99.90;;;;;;8308956;28;20200;-72
2022/12/05 12:40:12;;;;;;;100.97;43.03;;;4.50;99.90;;;;;;8341988;28;20209;-73
2022/12/05 12:44:16;;;;;;;87.67;39.70;;;4.50;99.90;;;;;;8319494;28;20190;-71
2022/12/05 12:48:43;;;;;;;98.20;43.27;;;4.50;99.90;;;;;;8327562;28;20184;-73
2022/12/05 12:53:13;;;;;;;153.73;64.67;;;4.50;99.90;;;;;;8326755;28;20191;-71
2022/12/05 12:57:26;;;;;;;80.43;40.07;;;4.50;99.90;;;;;;8331398;28;20206;-72
2022/12/05 13:01:38;;;;;;;77.73;41.23;;;4.40;99.90;;;;;;8328682;28;20191;-72
2022/12/05 13:05:50;;;;;;;96.27;46.60;;;4.40;99.90;;;;;;8324845;28;20190;-72
2022/12/05 13:09:59;;;;;;;119.90;54.00;;;4.40;99.90;;;;;;8330356;28;20226;-72
2022/12/05 13:14:02;;;;;;;93.93;43.93;;;4.40;99.90;;;;;;8324197;28;20226;-72
2022/12/05 13:18:05;;;;;;;98.43;45.03;;;4.30;99.90;;;;;;8323741;28;20269;-72
2022/12/05 13:22:07;;;;;;;112.73;50.83;;;4.30;99.90;;;;;;8331244;28;20221;-72
2022/12/05 13:26:10;;;;;;;86.97;41.63;;;4.30;99.90;;;;;;8328786;28;20654;-72
2022/12/05 13:30:18;;;;;;;78.10;38.53;;;4.30;99.90;;;;;;8330807;28;20248;-72
2022/12/05 13:34:33;;;;;;;84.30;41.17;;;4.30;99.90;;;;;;8310050;28;20221;-73
2022/12/05 13:43:02;;;;;;;96.83;44.97;;;4.30;99.90;;;;;;8315141;28;20271;-72
2022/12/05 13:47:06;;;;;;;117.37;55.73;;;4.30;99.90;;;;;;8321872;28;20181;-72
2022/12/05 13:51:29;;;;;;;102.27;49.07;;;4.30;99.90;;;;;;8327951;28;20520;-72
2022/12/05 13:55:36;;;;;;;105.07;49.43;;;4.30;99.90;;;;;;8315718;28;20233;-72
2022/12/05 14:00:08;;;;;;;70.93;35.67;;;4.30;99.90;;;;;;8318931;28;20206;-72
2022/12/05 14:04:40;;;;;;;65.27;31.20;;;4.20;99.90;;;;;;8324255;28;20206;-72
2022/12/05 14:08:53;;;;;;;64.70;31.23;;;4.20;99.90;;;;;;8325269;28;20186;-71
2022/12/05 14:13:13;;;;;;;63.70;32.60;;;4.20;99.90;;;;;;8323979;28;20219;-72
2022/12/05 14:17:14;;;;;;;75.70;38.70;;;4.20;99.90;;;;;;8311741;28;20247;-72
2022/12/05 14:21:25;;;;;;;77.33;39.70;;;4.30;99.90;;;;;;8328733;28;20188;-72
2022/12/05 14:25:39;;;;;;;69.50;34.63;;;4.20;99.90;;;;;;8330509;28;20213;-72
2022/12/05 14:29:51;;;;;;;74.13;33.87;;;4.20;99.90;;;;;;8335782;28;20184;-72
2022/12/05 14:34:10;;;;;;;67.90;32.87;;;4.20;99.90;;;;;;8328268;28;20206;-72
2022/12/05 14:38:29;;;;;;;70.03;33.60;;;4.10;99.90;;;;;;8323052;28;20206;-72
2022/12/05 14:42:55;;;;;;;63.80;30.80;;;4.10;99.90;;;;;;8333725;28;20182;-72
2022/12/05 14:47:01;;;;;;;77.80;35.90;;;4.10;99.90;;;;;;8331951;28;20183;-72
2022/12/05 14:51:31;;;;;;;71.80;33.37;;;4.00;99.90;;;;;;8328760;28;20185;-71
2022/12/05 14:55:34;;;;;;;66.30;31.40;;;4.00;99.90;;;;;;8331747;28;20216;-72
2022/12/05 14:59:51;;;;;;;71.00;34.33;;;4.00;99.90;;;;;;8322894;28;20290;-72
2022/12/05 15:04:00;;;;;;;83.97;38.43;;;4.00;99.90;;;;;;8324222;28;20207;-72
2022/12/05 15:08:03;;;;;;;76.20;34.30;;;3.90;99.90;;;;;;8319804;28;20187;-72
2022/12/05 15:12:19;;;;;;;77.67;37.53;;;3.90;99.90;;;;;;8330641;28;20232;-72
2022/12/05 15:16:22;;;;;;;79.27;36.17;;;3.90;99.90;;;;;;8312250;28;20251;-71
2022/12/05 15:20:32;;;;;;;79.30;36.43;;;3.90;99.90;;;;;;8328734;28;20186;-72
2022/12/05 15:24:37;;;;;;;75.20;36.30;;;3.80;99.90;;;;;;8329996;28;20300;-72
2022/12/05 15:28:39;;;;;;;77.80;35.70;;;3.80;99.90;;;;;;8331971;28;20198;-72
2022/12/05 15:32:41;;;;;;;91.10;39.33;;;3.80;99.90;;;;;;8327668;28;20505;-72
2022/12/05 15:37:07;;;;;;;81.00;38.67;;;3.80;99.90;;;;;;8332663;28;20217;-72
2022/12/05 15:41:16;;;;;;;78.60;36.67;;;3.70;99.90;;;;;;8322396;28;20297;-72
2022/12/05 15:45:24;;;;;;;92.50;39.57;;;3.70;99.90;;;;;;8331526;28;20287;-72
2022/12/05 15:49:26;;;;;;;77.60;35.60;;;3.70;99.90;;;;;;8324608;28;20187;-72
2022/12/05 15:53:42;;;;;;;68.53;34.17;;;3.70;99.90;;;;;;8330784;28;20199;-72
2022/12/05 15:58:20;;;;;;;76.80;37.07;;;3.80;99.90;;;;;;8326211;28;20202;-73
2022/12/05 16:02:36;;;;;;;91.07;41.10;;;3.80;99.90;;;;;;8332990;28;20215;-72
2022/12/05 16:06:51;;;;;;;90.70;43.60;;;3.80;99.90;;;;;;8330688;28;20210;-72
2022/12/05 16:10:52;;;;;;;88.23;41.67;;;3.80;99.90;;;;;;8323462;28;20191;-72
2022/12/05 16:14:56;;;;;;;92.23;41.37;;;3.80;99.90;;;;;;8334051;28;20217;-71
2022/12/05 16:19:01;;;;;;;101.50;44.17;;;3.80;99.90;;;;;;8343493;28;20187;-72
2022/12/05 16:23:20;;;;;;;112.43;44.27;;;3.80;99.90;;;;;;8339579;28;20217;-71
2022/12/05 16:27:24;;;;;;;106.40;44.83;;;3.70;99.90;;;;;;8349549;28;20178;-73
2022/12/05 16:31:26;;;;;;;118.33;46.43;;;3.70;99.90;;;;;;8330114;28;20189;-72
2022/12/05 16:35:30;;;;;;;109.27;44.90;;;3.70;99.90;;;;;;8331305;28;20243;-71
2022/12/05 16:39:30;;;;;;;111.47;46.93;;;3.70;99.90;;;;;;8328491;28;20194;-72
2022/12/05 16:43:32;;;;;;;93.27;40.33;;;3.70;99.90;;;;;;8328920;28;20265;-73
2022/12/05 16:47:52;;;;;;;94.80;41.67;;;3.70;99.90;;;;;;8315479;28;20220;-72
2022/12/05 16:52:02;;;;;;;87.53;42.03;;;3.70;99.90;;;;;;8331922;28;20182;-71
2022/12/05 16:56:04;;;;;;;95.57;38.47;;;3.60;99.90;;;;;;8328500;28;20214;-72
2022/12/05 17:00:12;;;;;;;87.37;40.70;;;3.70;99.90;;;;;;8325370;28;20233;-72
2022/12/05 17:04:13;;;;;;;86.20;37.40;;;3.70;99.90;;;;;;8325909;28;20272;-72
2022/12/05 17:08:14;;;;;;;78.43;36.80;;;3.70;99.90;;;;;;8333224;28;20214;-72
2022/12/05 17:12:21;;;;;;;77.07;37.17;;;3.80;99.90;;;;;;8327994;28;20201;-72
2022/12/05 17:16:23;;;;;;;79.57;37.00;;;3.80;99.90;;;;;;8333024;28;20221;-72
2022/12/05 17:20:24;;;;;;;73.07;35.93;;;3.80;99.90;;;;;;8331840;28;20421;-72
2022/12/05 17:24:27;;;;;;;92.47;44.27;;;3.80;99.90;;;;;;8333066;28;20189;-72
2022/12/05 17:28:28;;;;;;;143.50;61.73;;;3.80;99.90;;;;;;8323015;28;20201;-72
2022/12/05 17:32:28;;;;;;;142.83;60.87;;;3.90;99.90;;;;;;8334206;28;20247;-71
2022/12/05 17:36:29;;;;;;;109.00;51.10;;;3.90;99.90;;;;;;8324758;28;20202;-72
2022/12/05 17:40:31;;;;;;;108.70;47.60;;;3.90;99.90;;;;;;8322333;28;20265;-72
2022/12/05 17:44:32;;;;;;;95.40;43.60;;;3.90;99.90;;;;;;8321468;28;20174;-72
2022/12/05 17:48:33;;;;;;;94.93;43.93;;;3.90;99.90;;;;;;8330647;28;20203;-73
2022/12/05 17:52:34;;;;;;;133.20;56.80;;;3.90;99.90;;;;;;8318471;28;20216;-72
2022/12/05 17:56:35;;;;;;;125.13;52.70;;;3.90;99.90;;;;;;8324868;28;20202;-73
2022/12/05 18:00:36;;;;;;;98.23;46.60;;;3.90;99.90;;;;;;8328412;28;20445;-72
2022/12/05 18:04:37;;;;;;;102.83;48.43;;;3.80;99.90;;;;;;8328692;28;20193;-71
2022/12/05 18:08:40;;;;;;;98.67;44.73;;;3.80;99.90;;;;;;8326402;28;20207;-72
2022/12/05 18:12:41;;;;;;;91.07;43.53;;;3.80;99.90;;;;;;8332182;28;20305;-72
2022/12/05 18:16:42;;;;;;;88.67;38.70;;;3.80;99.90;;;;;;8332466;28;20212;-72
2022/12/05 18:20:43;;;;;;;85.30;42.67;;;3.70;99.90;;;;;;8336108;28;21476;-72
2022/12/05 18:24:44;;;;;;;102.77;46.80;;;3.70;99.90;;;;;;8334604;28;20187;-71
2022/12/05 18:28:46;;;;;;;134.03;72.03;;;3.80;99.90;;;;;;8341048;28;20188;-73
2022/12/05 18:32:48;;;;;;;126.33;68.97;;;3.80;99.90;;;;;;8330871;28;20202;-71
2022/12/05 18:36:49;;;;;;;98.10;50.20;;;3.80;99.90;;;;;;8331646;28;20284;-72
2022/12/05 18:40:58;;;;;;;88.43;40.60;;;3.80;99.90;;;;;;8329035;28;20262;-71
2022/12/05 18:45:00;;;;;;;93.50;41.63;;;3.80;99.90;;;;;;8330355;28;20182;-72
2022/12/05 18:49:01;;;;;;;82.63;37.93;;;3.80;99.90;;;;;;8367541;28;20195;-73
2022/12/05 18:53:02;;;;;;;78.77;35.87;;;3.70;99.90;;;;;;8362523;28;20192;-73
2022/12/05 18:57:03;;;;;;;105.70;44.97;;;3.80;99.90;;;;;;8363397;28;20204;-73
2022/12/05 19:01:16;;;;;;;77.00;38.33;;;3.80;99.90;;;;;;8363054;28;20217;-73
2022/12/05 19:05:17;;;;;;;66.73;34.33;;;3.70;99.90;;;;;;8371923;28;20178;-74
2022/12/05 19:09:20;;;;;;;69.93;34.67;;;3.80;99.90;;;;;;8366096;28;20190;-73
2022/12/05 19:13:24;;;;;;;73.17;33.47;;;3.80;99.90;;;;;;8366083;28;20174;-73
2022/12/05 19:17:25;;;;;;;69.60;34.27;;;3.80;99.90;;;;;;8362879;28;20202;-72
2022/12/05 19:21:29;;;;;;;107.00;52.53;;;3.80;99.90;;;;;;8360491;28;20166;-73
2022/12/05 19:25:30;;;;;;;126.73;64.27;;;3.80;99.90;;;;;;8359542;28;20190;-72
2022/12/05 19:29:31;;;;;;;162.43;82.13;;;3.80;99.90;;;;;;8378595;28;20221;-72
2022/12/05 19:33:38;;;;;;;131.23;65.17;;;3.80;99.90;;;;;;8359724;28;20399;-72
2022/12/05 19:37:42;;;;;;;105.30;53.77;;;3.80;99.90;;;;;;8353200;28;20212;-73
2022/12/05 19:41:43;;;;;;;83.90;45.60;;;3.80;99.90;;;;;;8362868;28;20202;-73
2022/12/05 19:45:47;;;;;;;84.53;39.73;;;3.90;99.90;;;;;;8359854;28;20186;-72
2022/12/05 19:49:49;;;;;;;71.03;36.67;;;3.90;99.90;;;;;;8358241;28;20175;-73
2022/12/05 19:53:50;;;;;;;77.37;37.27;;;3.80;99.90;;;;;;8358038;28;20198;-72
2022/12/05 19:57:50;;;;;;;82.80;37.87;;;3.80;99.90;;;;;;8346292;28;20202;-73
2022/12/05 20:01:51;;;;;;;65.20;32.10;;;3.80;99.90;;;;;;8359739;28;20194;-74
2022/12/05 20:05:57;;;;;;;60.43;31.83;;;3.90;99.90;;;;;;8353321;28;20329;-73
2022/12/05 20:09:58;;;;;;;62.37;31.63;;;3.90;99.90;;;;;;8357882;28;20186;-73
2022/12/05 20:14:00;;;;;;;59.07;31.77;;;3.90;99.90;;;;;;8358709;28;20198;-72
2022/12/05 20:18:01;;;;;;;58.17;30.97;;;4.00;99.90;;;;;;8351827;28;20200;-72
2022/12/05 20:22:02;;;;;;;64.40;32.50;;;4.00;99.90;;;;;;8356483;28;20235;-72
2022/12/05 20:26:10;;;;;;;56.47;31.67;;;4.00;99.90;;;;;;8351751;28;20189;-73
2022/12/05 20:30:11;;;;;;;61.57;32.17;;;4.10;99.90;;;;;;8351485;28;20175;-73
2022/12/05 20:34:13;;;;;;;57.90;29.83;;;4.10;99.90;;;;;;8357157;28;20216;-72
2022/12/05 20:38:14;;;;;;;57.83;30.47;;;4.10;99.90;;;;;;8358076;28;20170;-72
2022/12/05 20:42:16;;;;;;;56.00;31.17;;;4.10;99.90;;;;;;8359313;28;20166;-73
2022/12/05 20:46:18;;;;;;;56.00;30.87;;;4.20;99.90;;;;;;8359554;28;20180;-73
2022/12/05 20:50:19;;;;;;;54.47;31.43;;;4.20;99.90;;;;;;8361535;28;20172;-72
2022/12/05 20:54:26;;;;;;;50.77;30.00;;;4.20;99.90;;;;;;8357173;28;20209;-72
2022/12/05 20:58:27;;;;;;;51.53;30.00;;;4.20;99.90;;;;;;8330058;28;20239;-72
2022/12/05 21:02:28;;;;;;;56.90;31.30;;;4.20;99.90;;;;;;8352570;28;20198;-73
2022/12/05 21:06:33;;;;;;;103.10;49.07;;;4.20;99.90;;;;;;8354556;28;20192;-72
2022/12/05 21:10:52;;;;;;;100.87;54.83;;;4.30;99.90;;;;;;8531125;27;20500;-75
2022/12/05 21:14:53;;;;;;;112.07;61.87;;;4.30;99.90;;;;;;8525941;27;20182;-73
2022/12/05 21:18:55;;;;;;;120.97;67.23;;;4.30;99.90;;;;;;8502919;27;20250;-73
2022/12/05 21:22:55;;;;;;;113.87;60.70;;;4.30;99.90;;;;;;8502948;27;20202;-74
2022/12/05 21:26:56;;;;;;;93.47;52.00;;;4.20;99.90;;;;;;8499857;27;20388;-72